Time;durP1;ratioP1;P1;durP2;ratioP2;P2;SDS_P1;SDS_P2;PMS_P1;PMS_P2;Temp;Humidity;BMP_temperature;BMP_pressure;BME280_temperature;BME280_humidity;BME280_pressure;Samples;Min_cycle;Max_cycle;Signal;HPM_P1;HPM_P2
2021/12/13 00:01:47;;;;;;;;;20.00;18.67;;;;;;;;5018964;28;45341;-67
2021/12/13 00:04:12;;;;;;;;;18.00;15.33;;;;;;;;5022314;28;45359;-67
2021/12/13 00:06:39;;;;;;;;;18.67;15.33;;;;;;;;5023115;28;45375;-67
2021/12/13 00:09:15;;;;;;;;;22.00;16.00;;;;;;;;5022169;28;45371;-67
2021/12/13 00:11:42;;;;;;;;;20.33;15.33;;;;;;;;5022406;28;45533;-67
2021/12/13 00:14:19;;;;;;;;;18.33;15.67;;;;;;;;5021790;28;45436;-66
2021/12/13 00:16:46;;;;;;;;;13.67;9.33;;;;;;;;5023043;28;45312;-67
2021/12/13 00:19:15;;;;;;;;;24.00;20.33;;;;;;;;5022367;28;45454;-66
2021/12/13 00:21:43;;;;;;;;;20.00;17.67;;;;;;;;5022735;28;46568;-66
2021/12/13 00:24:10;;;;;;;;;15.67;14.33;;;;;;;;4995437;28;46074;-67
2021/12/13 00:26:44;;;;;;;;;18.00;15.33;;;;;;;;5022551;28;45314;-67
2021/12/13 00:29:11;;;;;;;;;20.00;18.33;;;;;;;;5022155;28;45462;-67
2021/12/13 00:31:41;;;;;;;;;18.67;15.67;;;;;;;;5022457;28;46113;-65
2021/12/13 00:34:14;;;;;;;;;11.00;11.00;;;;;;;;5021708;28;45482;-65
2021/12/13 00:36:47;;;;;;;;;16.67;13.00;;;;;;;;5022708;28;45427;-65
2021/12/13 00:39:28;;;;;;;;;16.33;12.67;;;;;;;;5022105;28;45320;-65
2021/12/13 00:41:54;;;;;;;;;18.00;14.67;;;;;;;;5020865;28;47175;-66
2021/12/13 00:44:26;;;;;;;;;16.33;14.33;;;;;;;;5021491;28;45905;-65
2021/12/13 00:46:54;;;;;;;;;15.33;12.67;;;;;;;;5022584;28;45376;-66
2021/12/13 00:49:22;;;;;;;;;13.00;13.00;;;;;;;;5022033;28;45542;-65
2021/12/13 00:51:48;;;;;;;;;15.67;14.67;;;;;;;;5022263;28;45320;-65
2021/12/13 00:54:17;;;;;;;;;21.33;16.33;;;;;;;;4998009;28;45336;-65
2021/12/13 00:56:43;;;;;;;;;12.00;10.00;;;;;;;;5016797;28;45244;-65
2021/12/13 00:59:10;;;;;;;;;12.00;11.33;;;;;;;;4998573;28;45587;-65
2021/12/13 01:01:35;;;;;;;;;11.33;11.33;;;;;;;;5004199;28;46395;-65
2021/12/13 01:04:03;;;;;;;;;18.33;13.33;;;;;;;;5021233;28;45445;-65
2021/12/13 01:06:47;;;;;;;;;13.67;11.00;;;;;;;;5022433;28;45211;-65
2021/12/13 01:09:31;;;;;;;;;16.00;12.33;;;;;;;;5021852;28;46138;-66
2021/12/13 01:11:59;;;;;;;;;13.33;12.00;;;;;;;;5020715;28;45569;-66
2021/12/13 01:14:27;;;;;;;;;12.00;10.67;;;;;;;;5020957;28;45487;-66
2021/12/13 01:19:33;;;;;;;;;11.67;11.33;;;;;;;;5021564;28;45316;-66
2021/12/13 01:22:02;;;;;;;;;15.00;10.00;;;;;;;;5005644;28;47535;-66
2021/12/13 01:25:02;;;;;;;;;15.33;11.33;;;;;;;;5024355;28;45481;-66
2021/12/13 01:27:27;;;;;;;;;13.00;12.00;;;;;;;;5024805;28;45363;-68
2021/12/13 01:29:52;;;;;;;;;17.00;13.67;;;;;;;;5011389;28;45324;-67
2021/12/13 01:32:18;;;;;;;;;14.67;13.00;;;;;;;;5024849;28;46309;-67
2021/12/13 01:34:45;;;;;;;;;16.67;13.00;;;;;;;;5024660;28;45276;-67
2021/12/13 01:37:15;;;;;;;;;13.67;13.33;;;;;;;;5025897;28;45303;-67
2021/12/13 01:39:51;;;;;;;;;12.67;12.00;;;;;;;;5025406;28;45450;-67
2021/12/13 01:42:22;;;;;;;;;14.33;14.33;;;;;;;;5024479;28;46735;-67
2021/12/13 01:44:49;;;;;;;;;13.33;13.00;;;;;;;;5003852;28;45394;-67
2021/12/13 01:47:16;;;;;;;;;12.33;11.00;;;;;;;;5021381;28;45362;-67
2021/12/13 01:49:43;;;;;;;;;13.00;10.00;;;;;;;;5025066;28;45524;-67
2021/12/13 01:52:32;;;;;;;;;13.33;10.67;;;;;;;;5025097;28;46787;-67
2021/12/13 01:54:59;;;;;;;;;14.00;12.33;;;;;;;;5010869;28;46243;-67
2021/12/13 01:57:39;;;;;;;;;13.00;11.67;;;;;;;;5024028;28;45328;-67
2021/12/13 02:00:08;;;;;;;;;15.33;15.33;;;;;;;;5007516;28;45575;-67
2021/12/13 02:02:39;;;;;;;;;11.67;10.00;;;;;;;;5006325;28;47186;-67
2021/12/13 02:05:16;;;;;;;;;13.67;11.33;;;;;;;;5024744;28;45470;-66
2021/12/13 02:07:44;;;;;;;;;14.00;11.33;;;;;;;;5024256;28;45394;-67
2021/12/13 02:10:30;;;;;;;;;11.00;9.33;;;;;;;;5007108;28;45515;-66
2021/12/13 02:12:59;;;;;;;;;11.00;9.00;;;;;;;;5023279;28;46306;-67
2021/12/13 02:18:11;;;;;;;;;14.67;14.00;;;;;;;;5023901;28;45226;-67
2021/12/13 02:20:38;;;;;;;;;15.33;12.67;;;;;;;;5023791;28;45365;-67
2021/12/13 02:23:05;;;;;;;;;11.00;11.00;;;;;;;;5023536;28;45399;-67
2021/12/13 02:25:33;;;;;;;;;11.00;10.00;;;;;;;;5024327;28;45387;-67
2021/12/13 02:28:04;;;;;;;;;14.67;11.33;;;;;;;;5023734;28;46063;-67
2021/12/13 02:30:38;;;;;;;;;18.67;13.33;;;;;;;;5024848;28;45411;-67
2021/12/13 02:33:06;;;;;;;;;13.67;12.33;;;;;;;;5023697;28;45338;-67
2021/12/13 02:35:33;;;;;;;;;13.67;11.67;;;;;;;;5024428;28;45412;-67
2021/12/13 02:37:59;;;;;;;;;16.33;14.00;;;;;;;;5023811;28;45348;-67
2021/12/13 02:40:24;;;;;;;;;14.00;11.00;;;;;;;;5024400;28;45394;-66
2021/12/13 02:42:50;;;;;;;;;18.33;15.67;;;;;;;;5023591;28;45399;-67
2021/12/13 02:45:26;;;;;;;;;13.67;13.67;;;;;;;;5024415;28;45298;-67
2021/12/13 02:48:17;;;;;;;;;17.33;13.33;;;;;;;;5023616;28;45162;-67
2021/12/13 02:50:45;;;;;;;;;15.67;14.33;;;;;;;;5021514;28;45925;-67
2021/12/13 02:53:13;;;;;;;;;19.00;13.67;;;;;;;;5004237;28;48314;-66
2021/12/13 02:55:39;;;;;;;;;15.67;15.67;;;;;;;;5018746;28;45253;-67
2021/12/13 02:58:07;;;;;;;;;15.00;14.00;;;;;;;;5005500;28;45372;-66
2021/12/13 03:00:47;;;;;;;;;12.67;12.67;;;;;;;;5024452;28;45540;-67
2021/12/13 03:03:15;;;;;;;;;15.00;12.00;;;;;;;;5022950;28;46302;-67
2021/12/13 03:05:43;;;;;;;;;19.33;14.67;;;;;;;;5023805;28;45438;-67
2021/12/13 03:08:11;;;;;;;;;18.67;15.00;;;;;;;;5023013;28;45402;-67
2021/12/13 03:10:39;;;;;;;;;17.33;13.67;;;;;;;;5004526;28;45366;-67
2021/12/13 03:13:04;;;;;;;;;18.67;17.67;;;;;;;;5003641;28;47309;-67
2021/12/13 03:15:31;;;;;;;;;18.33;15.33;;;;;;;;5023731;28;45278;-67
2021/12/13 03:18:15;;;;;;;;;17.33;16.00;;;;;;;;5022974;28;45387;-66
2021/12/13 03:20:43;;;;;;;;;17.00;14.67;;;;;;;;5024317;28;45782;-67
2021/12/13 03:23:08;;;;;;;;;18.00;13.00;;;;;;;;5022388;28;46177;-67
2021/12/13 03:25:42;;;;;;;;;19.33;15.33;;;;;;;;5023269;28;45442;-67
2021/12/13 03:28:20;;;;;;;;;19.33;14.67;;;;;;;;5022837;28;45376;-66
2021/12/13 03:31:01;;;;;;;;;22.00;19.00;;;;;;;;5023916;28;45240;-69
2021/12/13 03:33:39;;;;;;;;;28.00;20.00;;;;;;;;5022516;28;45489;-67
2021/12/13 03:36:06;;;;;;;;;15.33;15.33;;;;;;;;5005447;28;45709;-67
2021/12/13 03:38:38;;;;;;;;;21.00;18.00;;;;;;;;5022771;28;45304;-67
2021/12/13 03:41:06;;;;;;;;;20.67;15.67;;;;;;;;5023295;28;45665;-67
2021/12/13 03:43:34;;;;;;;;;20.67;17.33;;;;;;;;5022312;28;47042;-67
2021/12/13 03:46:02;;;;;;;;;24.00;19.67;;;;;;;;5022406;28;45434;-69
2021/12/13 03:48:28;;;;;;;;;22.00;17.00;;;;;;;;5004877;28;45960;-67
2021/12/13 03:50:56;;;;;;;;;18.67;16.33;;;;;;;;5023694;28;45629;-67
2021/12/13 03:53:23;;;;;;;;;22.00;16.67;;;;;;;;5022357;28;45377;-67
2021/12/13 03:55:50;;;;;;;;;16.67;16.67;;;;;;;;5017941;28;45204;-67
2021/12/13 03:58:17;;;;;;;;;19.67;16.33;;;;;;;;5022483;28;45454;-67
2021/12/13 04:00:46;;;;;;;;;18.67;17.67;;;;;;;;5023569;28;45357;-67
2021/12/13 04:03:12;;;;;;;;;21.33;15.67;;;;;;;;5022034;28;46328;-67
2021/12/13 04:05:38;;;;;;;;;20.33;19.00;;;;;;;;5022847;28;45310;-67
2021/12/13 04:08:06;;;;;;;;;16.00;14.67;;;;;;;;5022054;28;45320;-67
2021/12/13 04:10:42;;;;;;;;;19.33;18.00;;;;;;;;5023280;28;45328;-67
2021/12/13 04:13:12;;;;;;;;;21.00;15.67;;;;;;;;5002884;28;47030;-67
2021/12/13 04:16:00;;;;;;;;;20.67;15.00;;;;;;;;5022910;28;45359;-67
2021/12/13 04:19:06;;;;;;;;;17.67;17.00;;;;;;;;5021866;28;45350;-66
2021/12/13 04:21:46;;;;;;;;;15.33;13.00;;;;;;;;5023014;28;45616;-67
2021/12/13 04:24:14;;;;;;;;;18.67;15.67;;;;;;;;5020694;28;45245;-66
2021/12/13 04:26:42;;;;;;;;;21.67;16.67;;;;;;;;5004566;28;45499;-67
2021/12/13 04:29:12;;;;;;;;;24.33;19.00;;;;;;;;5021818;28;45762;-67
2021/12/13 04:31:37;;;;;;;;;22.00;19.00;;;;;;;;5023214;28;45233;-66
2021/12/13 04:34:04;;;;;;;;;22.67;15.33;;;;;;;;5021511;28;46002;-67
2021/12/13 04:36:41;;;;;;;;;20.33;15.67;;;;;;;;5022721;28;45388;-67
2021/12/13 04:39:06;;;;;;;;;16.67;15.33;;;;;;;;5021617;28;45450;-67
2021/12/13 04:41:31;;;;;;;;;21.67;18.33;;;;;;;;5022909;28;45359;-67
2021/12/13 04:44:05;;;;;;;;;19.33;15.33;;;;;;;;5020561;28;45426;-67
2021/12/13 04:46:31;;;;;;;;;17.33;12.33;;;;;;;;5022581;28;45374;-67
2021/12/13 04:48:59;;;;;;;;;15.00;14.67;;;;;;;;5021671;28;45391;-66
2021/12/13 04:51:27;;;;;;;;;15.33;15.00;;;;;;;;5022663;28;45462;-67
2021/12/13 04:53:53;;;;;;;;;16.00;10.00;;;;;;;;4997762;28;47108;-67
2021/12/13 04:56:23;;;;;;;;;20.00;18.00;;;;;;;;5000216;28;45377;-67
2021/12/13 04:58:50;;;;;;;;;17.67;15.00;;;;;;;;5025102;28;45297;-67
2021/12/13 05:01:17;;;;;;;;;17.67;13.00;;;;;;;;5026199;28;45272;-67
2021/12/13 05:03:46;;;;;;;;;12.67;10.67;;;;;;;;5024736;28;45620;-66
2021/12/13 05:06:14;;;;;;;;;12.67;11.00;;;;;;;;5025414;28;45387;-67
2021/12/13 05:08:39;;;;;;;;;15.33;13.00;;;;;;;;5006918;28;45544;-66
2021/12/13 05:11:06;;;;;;;;;10.67;9.67;;;;;;;;5025872;28;45326;-66
2021/12/13 05:13:35;;;;;;;;;12.67;11.33;;;;;;;;5024566;28;46806;-67
2021/12/13 05:16:08;;;;;;;;;14.67;13.67;;;;;;;;5025545;28;45423;-67
2021/12/13 05:18:37;;;;;;;;;13.00;11.33;;;;;;;;5024666;28;45357;-67
2021/12/13 05:21:04;;;;;;;;;12.67;10.00;;;;;;;;5025401;28;45430;-67
2021/12/13 05:23:31;;;;;;;;;17.00;13.00;;;;;;;;5024188;28;45384;-68
2021/12/13 05:26:01;;;;;;;;;13.00;13.00;;;;;;;;5024521;28;45367;-66
2021/12/13 05:28:39;;;;;;;;;12.00;12.00;;;;;;;;5024288;28;45465;-67
2021/12/13 05:31:08;;;;;;;;;15.33;13.00;;;;;;;;5025408;28;45359;-66
2021/12/13 05:33:35;;;;;;;;;17.00;13.33;;;;;;;;5024141;28;45529;-67
2021/12/13 05:36:04;;;;;;;;;21.67;16.67;;;;;;;;5024680;28;45347;-67
2021/12/13 05:38:40;;;;;;;;;22.33;16.67;;;;;;;;5023784;28;45340;-68
2021/12/13 05:41:07;;;;;;;;;23.33;14.00;;;;;;;;5023564;28;45539;-65
2021/12/13 05:43:37;;;;;;;;;16.67;15.00;;;;;;;;5023792;28;45518;-65
2021/12/13 05:46:07;;;;;;;;;20.00;17.00;;;;;;;;5022594;28;46173;-67
2021/12/13 05:48:42;;;;;;;;;19.00;15.33;;;;;;;;5023354;28;45380;-65
2021/12/13 05:51:26;;;;;;;;;19.67;16.67;;;;;;;;5006995;28;45411;-66
2021/12/13 05:53:53;;;;;;;;;16.33;14.67;;;;;;;;4999904;28;47042;-66
2021/12/13 05:56:20;;;;;;;;;14.00;14.00;;;;;;;;5023993;28;45284;-67
2021/12/13 05:58:48;;;;;;;;;16.33;12.33;;;;;;;;5005422;28;45551;-66
2021/12/13 06:01:20;;;;;;;;;14.67;14.67;;;;;;;;5023969;28;45403;-66
2021/12/13 06:03:54;;;;;;;;;16.67;12.00;;;;;;;;5022697;28;45456;-66
2021/12/13 06:06:21;;;;;;;;;8.33;8.33;;;;;;;;5024390;28;45825;-66
2021/12/13 06:08:49;;;;;;;;;15.33;15.33;;;;;;;;5023139;28;45453;-68
2021/12/13 06:11:20;;;;;;;;;25.33;19.00;;;;;;;;5023639;28;45360;-66
2021/12/13 06:13:46;;;;;;;;;20.00;17.33;;;;;;;;5023251;28;45620;-66
2021/12/13 06:16:23;;;;;;;;;14.00;13.33;;;;;;;;5023501;28;45314;-66
2021/12/13 06:18:57;;;;;;;;;16.67;12.33;;;;;;;;5023154;28;45464;-66
2021/12/13 06:21:41;;;;;;;;;19.00;18.00;;;;;;;;5024158;28;45407;-66
2021/12/13 06:24:08;;;;;;;;;16.67;16.67;;;;;;;;5022162;28;46497;-65
2021/12/13 06:26:33;;;;;;;;;19.00;18.67;;;;;;;;5021104;28;45481;-66
2021/12/13 06:29:00;;;;;;;;;24.67;21.67;;;;;;;;4997792;28;45415;-67
2021/12/13 06:31:34;;;;;;;;;22.33;18.33;;;;;;;;5004698;28;45214;-66
2021/12/13 06:34:02;;;;;;;;;18.00;17.67;;;;;;;;5020491;28;46961;-67
2021/12/13 06:36:32;;;;;;;;;21.67;19.00;;;;;;;;5005018;28;45384;-67
2021/12/13 06:39:09;;;;;;;;;16.33;15.67;;;;;;;;4998726;28;45329;-66
2021/12/13 06:41:38;;;;;;;;;17.67;16.00;;;;;;;;5023155;28;45286;-66
2021/12/13 06:44:09;;;;;;;;;16.00;14.33;;;;;;;;4998316;28;46620;-66
2021/12/13 06:46:40;;;;;;;;;13.33;13.33;;;;;;;;5004501;28;45282;-66
2021/12/13 06:49:11;;;;;;;;;17.33;16.00;;;;;;;;5021757;28;45305;-66
2021/12/13 06:51:49;;;;;;;;;9.33;9.33;;;;;;;;5005496;28;45463;-66
2021/12/13 06:54:17;;;;;;;;;17.33;14.33;;;;;;;;5014222;28;45710;-67
2021/12/13 06:56:43;;;;;;;;;14.00;13.00;;;;;;;;5020855;28;45344;-68
2021/12/13 06:59:10;;;;;;;;;14.67;12.33;;;;;;;;5021674;28;45474;-67
2021/12/13 07:01:38;;;;;;;;;12.67;10.67;;;;;;;;5020876;28;45484;-66
2021/12/13 07:04:09;;;;;;;;;13.67;11.33;;;;;;;;5020942;28;45579;-67
2021/12/13 07:06:34;;;;;;;;;3.33;1.00;;;;;;;;5020005;28;45247;-67
2021/12/13 07:09:02;;;;;;;;;14.00;12.00;;;;;;;;5022116;28;45556;-67
2021/12/13 07:11:37;;;;;;;;;15.67;15.67;;;;;;;;5023064;28;45252;-66
2021/12/13 07:14:06;;;;;;;;;17.00;12.00;;;;;;;;5020990;28;45760;-66
2021/12/13 07:16:33;;;;;;;;;17.67;17.00;;;;;;;;5022208;28;45332;-66
2021/12/13 07:19:05;;;;;;;;;20.33;17.67;;;;;;;;5020065;28;45421;-68
2021/12/13 07:21:57;;;;;;;;;17.67;14.33;;;;;;;;5022919;28;45451;-67
2021/12/13 07:24:42;;;;;;;;;12.67;11.33;;;;;;;;5014193;28;46285;-67
2021/12/13 07:27:13;;;;;;;;;14.33;14.33;;;;;;;;5012149;28;45215;-67
2021/12/13 07:29:41;;;;;;;;;11.00;10.00;;;;;;;;5021052;28;45572;-67
2021/12/13 07:32:19;;;;;;;;;10.67;10.00;;;;;;;;5022014;28;45336;-67
2021/12/13 07:34:53;;;;;;;;;14.33;11.00;;;;;;;;5020000;28;45521;-67
2021/12/13 07:37:32;;;;;;;;;11.67;11.33;;;;;;;;5021422;28;46468;-67
2021/12/13 07:40:13;;;;;;;;;12.67;10.00;;;;;;;;5021486;28;45488;-67
2021/12/13 07:42:38;;;;;;;;;10.33;10.00;;;;;;;;5021465;28;45303;-67
2021/12/13 07:45:21;;;;;;;;;14.33;11.00;;;;;;;;5021844;28;46467;-66
2021/12/13 07:47:47;;;;;;;;;9.00;9.00;;;;;;;;5021103;28;45327;-66
2021/12/13 07:50:13;;;;;;;;;8.33;6.33;;;;;;;;5017885;28;45418;-66
2021/12/13 07:52:39;;;;;;;;;8.00;7.00;;;;;;;;5021872;28;45306;-66
2021/12/13 07:55:16;;;;;;;;;4.00;4.00;;;;;;;;5011630;28;46694;-65
2021/12/13 07:57:42;;;;;;;;;6.00;5.00;;;;;;;;5002693;28;45474;-66
2021/12/13 08:00:15;;;;;;;;;5.00;4.00;;;;;;;;5021163;28;45376;-66
2021/12/13 08:02:52;;;;;;;;;3.00;3.00;;;;;;;;5021384;28;45341;-67
2021/12/13 08:05:21;;;;;;;;;3.00;2.00;;;;;;;;5019898;28;46276;-67
2021/12/13 08:07:48;;;;;;;;;3.00;1.33;;;;;;;;5021395;28;45235;-67
2021/12/13 08:10:23;;;;;;;;;5.00;1.33;;;;;;;;5021277;28;45304;-68
2021/12/13 08:12:50;;;;;;;;;2.67;2.67;;;;;;;;5003249;28;45383;-67
2021/12/13 08:15:27;;;;;;;;;3.00;2.00;;;;;;;;5021417;28;46599;-67
2021/12/13 08:17:54;;;;;;;;;3.00;3.00;;;;;;;;5021223;28;45324;-66
2021/12/13 08:20:30;;;;;;;;;2.00;2.00;;;;;;;;5021920;28;45417;-66
2021/12/13 08:22:57;;;;;;;;;4.67;3.00;;;;;;;;5020893;28;45450;-66
2021/12/13 08:25:27;;;;;;;;;9.33;4.33;;;;;;;;5021337;28;45336;-66
2021/12/13 08:27:56;;;;;;;;;8.67;6.00;;;;;;;;5019512;28;45955;-66
2021/12/13 08:30:26;;;;;;;;;7.33;6.00;;;;;;;;5018945;28;45334;-66
2021/12/13 08:33:13;;;;;;;;;5.00;4.00;;;;;;;;5027948;28;45477;-66
2021/12/13 08:36:01;;;;;;;;;8.00;4.00;;;;;;;;5025991;28;45474;-66
2021/12/13 08:38:32;;;;;;;;;7.00;6.00;;;;;;;;5027890;28;45291;-66
2021/12/13 08:40:59;;;;;;;;;12.00;10.00;;;;;;;;5026529;28;45443;-67
2021/12/13 08:43:36;;;;;;;;;6.00;6.00;;;;;;;;5007195;28;45518;-67
2021/12/13 08:46:03;;;;;;;;;9.33;9.00;;;;;;;;5008656;28;47057;-67
2021/12/13 08:48:28;;;;;;;;;10.33;9.00;;;;;;;;5026221;28;45311;-67
2021/12/13 08:50:55;;;;;;;;;11.50;9.50;;;;;;;;5027220;28;45493;-66
2021/12/13 08:53:34;;;;;;;;;12.00;11.00;;;;;;;;5004365;28;45316;-66
2021/12/13 08:56:03;;;;;;;;;8.67;7.67;;;;;;;;5019880;28;45345;-67
2021/12/13 08:58:29;;;;;;;;;12.00;10.67;;;;;;;;5027080;28;45497;-67
2021/12/13 09:00:59;;;;;;;;;11.00;10.33;;;;;;;;5028019;28;45506;-66
2021/12/13 09:03:27;;;;;;;;;8.00;8.00;;;;;;;;5027766;28;45340;-67
2021/12/13 09:05:52;;;;;;;;;9.00;6.67;;;;;;;;5027602;28;46326;-67
2021/12/13 09:08:23;;;;;;;;;8.67;5.33;;;;;;;;5027393;28;45388;-66
2021/12/13 09:11:00;;;;;;;;;8.33;7.33;;;;;;;;5009344;28;45351;-67
2021/12/13 09:13:38;;;;;;;;;7.00;5.00;;;;;;;;5008000;28;45614;-66
2021/12/13 09:16:04;;;;;;;;;9.00;5.00;;;;;;;;5021495;28;45524;-67
2021/12/13 09:18:29;;;;;;;;;6.33;5.67;;;;;;;;5024324;28;45891;-67
2021/12/13 09:20:55;;;;;;;;;4.33;4.33;;;;;;;;5021310;28;45339;-66
2021/12/13 09:23:21;;;;;;;;;8.67;8.67;;;;;;;;5022554;28;45325;-67
2021/12/13 09:25:46;;;;;;;;;12.00;9.33;;;;;;;;5026289;28;46093;-66
2021/12/13 09:28:11;;;;;;;;;10.67;10.67;;;;;;;;5004464;28;45226;-67
2021/12/13 09:30:40;;;;;;;;;8.33;6.33;;;;;;;;5010963;28;45428;-66
2021/12/13 09:33:14;;;;;;;;;10.67;9.67;;;;;;;;5007445;28;45467;-67
2021/12/13 09:35:39;;;;;;;;;9.00;9.00;;;;;;;;5006247;28;45423;-66
2021/12/13 09:38:20;;;;;;;;;7.00;7.00;;;;;;;;5012615;28;45336;-67
2021/12/13 09:40:52;;;;;;;;;5.00;5.00;;;;;;;;5015624;28;45360;-66
2021/12/13 09:43:19;;;;;;;;;3.67;3.67;;;;;;;;5017262;28;45273;-66
2021/12/13 09:45:48;;;;;;;;;6.00;5.00;;;;;;;;5000930;28;46434;-67
2021/12/13 09:48:25;;;;;;;;;9.00;5.67;;;;;;;;5000982;28;46760;-66
2021/12/13 09:50:52;;;;;;;;;8.00;6.00;;;;;;;;5018458;28;45405;-67
2021/12/13 09:53:21;;;;;;;;;9.00;5.00;;;;;;;;5004850;28;46062;-66
2021/12/13 09:55:49;;;;;;;;;8.00;8.00;;;;;;;;5014839;28;46380;-67
2021/12/13 09:58:17;;;;;;;;;9.00;8.67;;;;;;;;5005604;28;45475;-66
2021/12/13 10:00:45;;;;;;;;;9.33;8.67;;;;;;;;5005499;28;45368;-66
2021/12/13 10:03:17;;;;;;;;;9.00;9.00;;;;;;;;5023584;28;45375;-66
2021/12/13 10:05:44;;;;;;;;;14.00;8.67;;;;;;;;5024268;28;45385;-65
2021/12/13 10:08:11;;;;;;;;;5.33;5.33;;;;;;;;5023389;28;45612;-66
2021/12/13 10:10:48;;;;;;;;;5.00;5.00;;;;;;;;5023721;28;45458;-66
2021/12/13 10:13:17;;;;;;;;;4.67;4.67;;;;;;;;5022612;28;45649;-66
2021/12/13 10:15:54;;;;;;;;;6.00;4.33;;;;;;;;5023922;28;46621;-66
2021/12/13 10:18:21;;;;;;;;;8.00;7.67;;;;;;;;5023232;28;45222;-66
2021/12/13 10:20:52;;;;;;;;;7.67;5.00;;;;;;;;5024149;28;45444;-67
2021/12/13 10:23:20;;;;;;;;;5.00;3.67;;;;;;;;5022017;28;45400;-65
2021/12/13 10:25:47;;;;;;;;;3.67;2.67;;;;;;;;5023662;28;45365;-65
2021/12/13 10:28:14;;;;;;;;;2.67;1.67;;;;;;;;5021160;28;46167;-65
2021/12/13 10:30:43;;;;;;;;;3.33;3.33;;;;;;;;5002151;28;45304;-65
2021/12/13 10:33:09;;;;;;;;;2.33;2.00;;;;;;;;5010575;28;45438;-65
2021/12/13 10:35:37;;;;;;;;;2.67;2.67;;;;;;;;5005364;28;47144;-66
2021/12/13 10:38:06;;;;;;;;;2.00;2.00;;;;;;;;5021776;28;45498;-67
2021/12/13 10:40:37;;;;;;;;;3.67;3.67;;;;;;;;5002266;28;45337;-67
2021/12/13 10:43:02;;;;;;;;;4.00;4.00;;;;;;;;5004804;28;45486;-67
2021/12/13 10:45:33;;;;;;;;;5.33;5.00;;;;;;;;5023420;28;45537;-66
2021/12/13 10:47:59;;;;;;;;;8.00;8.00;;;;;;;;5022376;28;45244;-67
2021/12/13 10:50:37;;;;;;;;;7.67;6.67;;;;;;;;5018189;28;45443;-66
2021/12/13 10:53:04;;;;;;;;;9.00;9.00;;;;;;;;5022937;28;45454;-66
2021/12/13 10:55:38;;;;;;;;;9.33;9.00;;;;;;;;5012792;28;45305;-66
2021/12/13 10:58:04;;;;;;;;;8.67;8.67;;;;;;;;5022788;28;45481;-66
2021/12/13 11:00:35;;;;;;;;;5.33;5.33;;;;;;;;5023486;28;45423;-66
2021/12/13 11:03:04;;;;;;;;;4.00;4.00;;;;;;;;5022750;28;45324;-66
2021/12/13 11:05:29;;;;;;;;;4.33;4.33;;;;;;;;5023475;28;45361;-67
2021/12/13 11:07:56;;;;;;;;;6.00;6.00;;;;;;;;5004396;28;45679;-67
2021/12/13 11:10:23;;;;;;;;;5.33;4.33;;;;;;;;5022786;28;45166;-67
2021/12/13 11:12:52;;;;;;;;;5.00;5.00;;;;;;;;5022653;28;45591;-67
2021/12/13 11:15:20;;;;;;;;;4.00;4.00;;;;;;;;5019409;28;45360;-65
2021/12/13 11:17:46;;;;;;;;;6.33;5.33;;;;;;;;5022031;28;45458;-66
2021/12/13 11:20:22;;;;;;;;;6.33;4.33;;;;;;;;5023294;28;45445;-64
2021/12/13 11:22:47;;;;;;;;;8.00;4.00;;;;;;;;5021389;28;45505;-64
2021/12/13 11:25:15;;;;;;;;;6.33;6.00;;;;;;;;5021480;28;47982;-64
2021/12/13 11:27:41;;;;;;;;;6.33;5.00;;;;;;;;5020827;28;45954;-67
2021/12/13 11:30:09;;;;;;;;;8.33;7.33;;;;;;;;5022820;28;45426;-67
2021/12/13 11:32:34;;;;;;;;;6.33;4.67;;;;;;;;5022578;28;45244;-67
2021/12/13 11:35:12;;;;;;;;;3.00;3.00;;;;;;;;5001540;28;48432;-66
2021/12/13 11:37:56;;;;;;;;;4.00;4.00;;;;;;;;5004430;28;45537;-67
2021/12/13 11:40:40;;;;;;;;;4.33;4.00;;;;;;;;5021531;28;45529;-67
2021/12/13 11:43:23;;;;;;;;;5.00;4.00;;;;;;;;5022366;28;45406;-66
2021/12/13 11:46:07;;;;;;;;;4.33;3.33;;;;;;;;5004230;28;47149;-66
2021/12/13 11:48:41;;;;;;;;;3.00;3.00;;;;;;;;5021924;28;45299;-66
2021/12/13 11:51:25;;;;;;;;;4.00;4.00;;;;;;;;5022836;28;45451;-66
2021/12/13 11:53:51;;;;;;;;;5.67;5.00;;;;;;;;5018836;28;45687;-66
2021/12/13 11:56:34;;;;;;;;;4.00;4.00;;;;;;;;5016651;28;45304;-66
2021/12/13 11:59:18;;;;;;;;;5.00;5.00;;;;;;;;5021925;28;45596;-66
2021/12/13 12:01:52;;;;;;;;;8.00;8.00;;;;;;;;5023156;28;45306;-66
2021/12/13 12:04:24;;;;;;;;;11.00;8.00;;;;;;;;5001606;28;45501;-67
2021/12/13 12:07:08;;;;;;;;;10.00;8.00;;;;;;;;5021826;28;45416;-66
2021/12/13 12:09:33;;;;;;;;;10.00;7.33;;;;;;;;5021303;28;45306;-67
2021/12/13 12:12:10;;;;;;;;;6.00;4.75;;;;;;;;5022470;28;45430;-66
2021/12/13 12:14:35;;;;;;;;;8.00;5.67;;;;;;;;4994630;28;45181;-67
2021/12/13 12:17:02;;;;;;;;;10.33;10.33;;;;;;;;5020750;28;48009;-66
2021/12/13 12:19:33;;;;;;;;;9.00;8.33;;;;;;;;5021071;28;45418;-67
2021/12/13 12:21:59;;;;;;;;;9.00;7.33;;;;;;;;5021737;28;45328;-67
2021/12/13 12:24:45;;;;;;;;;8.67;6.33;;;;;;;;5021087;28;45406;-67
2021/12/13 12:27:15;;;;;;;;;4.33;4.33;;;;;;;;5012353;28;45522;-67
2021/12/13 12:29:46;;;;;;;;;6.33;5.00;;;;;;;;5020229;28;45542;-67
2021/12/13 12:32:17;;;;;;;;;4.00;4.00;;;;;;;;5021756;28;45435;-67
2021/12/13 12:34:52;;;;;;;;;5.33;5.33;;;;;;;;4997927;28;45322;-67
2021/12/13 12:37:27;;;;;;;;;8.00;5.33;;;;;;;;5021971;28;45937;-67
2021/12/13 12:39:58;;;;;;;;;5.00;5.00;;;;;;;;5020085;28;46281;-67
2021/12/13 12:42:37;;;;;;;;;5.67;5.67;;;;;;;;5022134;28;45166;-67
2021/12/13 12:45:10;;;;;;;;;6.33;6.33;;;;;;;;5021707;28;45409;-67
2021/12/13 12:47:35;;;;;;;;;10.00;8.33;;;;;;;;5021011;28;45489;-67
2021/12/13 12:50:13;;;;;;;;;11.00;8.67;;;;;;;;5020949;28;45411;-67
2021/12/13 12:52:49;;;;;;;;;9.33;8.00;;;;;;;;5021236;28;45545;-67
2021/12/13 12:55:15;;;;;;;;;7.00;7.00;;;;;;;;5001840;28;45451;-67
2021/12/13 12:57:41;;;;;;;;;8.67;8.67;;;;;;;;5003006;28;48243;-67
2021/12/13 13:00:06;;;;;;;;;7.67;7.33;;;;;;;;5021427;28;45229;-67
2021/12/13 13:02:32;;;;;;;;;9.00;7.67;;;;;;;;5021110;28;45332;-67
2021/12/13 13:05:03;;;;;;;;;5.00;4.00;;;;;;;;5021819;28;45503;-67
2021/12/13 13:07:35;;;;;;;;;8.33;7.00;;;;;;;;5021198;28;45565;-67
2021/12/13 13:10:03;;;;;;;;;8.00;8.00;;;;;;;;5021039;28;45554;-67
2021/12/13 13:12:28;;;;;;;;;7.33;6.33;;;;;;;;5021576;28;45374;-67
2021/12/13 13:14:56;;;;;;;;;11.00;8.67;;;;;;;;5021752;28;45582;-67
2021/12/13 13:17:24;;;;;;;;;16.00;9.33;;;;;;;;5022384;28;45405;-67
2021/12/13 13:19:50;;;;;;;;;10.33;9.33;;;;;;;;5006073;28;46036;-67
2021/12/13 13:22:21;;;;;;;;;11.67;9.00;;;;;;;;5024255;28;45411;-67
2021/12/13 13:24:50;;;;;;;;;8.33;7.33;;;;;;;;5024135;28;45308;-67
2021/12/13 13:27:16;;;;;;;;;11.00;8.67;;;;;;;;5023715;28;48140;-67
2021/12/13 13:29:41;;;;;;;;;7.00;7.00;;;;;;;;5001165;28;45946;-67
2021/12/13 13:32:10;;;;;;;;;8.33;8.00;;;;;;;;5025183;28;45312;-67
2021/12/13 13:34:38;;;;;;;;;12.33;11.00;;;;;;;;5006491;28;45800;-67
2021/12/13 13:37:19;;;;;;;;;9.00;6.33;;;;;;;;5024936;28;45395;-67
2021/12/13 13:39:49;;;;;;;;;8.67;8.67;;;;;;;;5023725;28;45383;-67
2021/12/13 13:42:18;;;;;;;;;13.33;11.00;;;;;;;;5025079;28;45347;-67
2021/12/13 13:44:46;;;;;;;;;10.00;10.00;;;;;;;;5024364;28;45556;-67
2021/12/13 13:47:17;;;;;;;;;11.00;9.00;;;;;;;;5024625;28;45417;-67
2021/12/13 13:49:43;;;;;;;;;10.00;10.00;;;;;;;;5006096;28;45515;-67
2021/12/13 13:52:12;;;;;;;;;9.33;8.33;;;;;;;;5024648;28;45402;-67
2021/12/13 13:54:38;;;;;;;;;10.00;10.00;;;;;;;;5015060;28;45175;-67
2021/12/13 13:57:10;;;;;;;;;13.00;12.00;;;;;;;;5024578;28;45317;-68
2021/12/13 13:59:38;;;;;;;;;11.00;10.00;;;;;;;;5023784;28;45326;-67
2021/12/13 14:02:07;;;;;;;;;11.00;10.00;;;;;;;;5024901;28;45364;-67
2021/12/13 14:04:40;;;;;;;;;12.00;9.00;;;;;;;;5023778;28;45615;-67
2021/12/13 14:07:11;;;;;;;;;10.33;9.00;;;;;;;;5024251;28;46348;-67
2021/12/13 14:09:42;;;;;;;;;8.00;7.00;;;;;;;;5023257;28;45387;-67
2021/12/13 14:12:11;;;;;;;;;8.00;8.00;;;;;;;;5024713;28;45479;-67
2021/12/13 14:14:44;;;;;;;;;14.33;14.33;;;;;;;;4997049;28;45455;-67
2021/12/13 14:17:10;;;;;;;;;14.33;12.33;;;;;;;;5023757;28;46847;-67
2021/12/13 14:19:40;;;;;;;;;16.00;11.00;;;;;;;;5023218;28;45495;-67
2021/12/13 14:22:07;;;;;;;;;10.00;10.00;;;;;;;;5024646;28;45408;-67
2021/12/13 14:24:35;;;;;;;;;11.00;9.33;;;;;;;;5023448;28;45559;-67
2021/12/13 14:27:18;;;;;;;;;10.33;10.00;;;;;;;;5023897;28;45340;-67
2021/12/13 14:29:45;;;;;;;;;14.67;12.33;;;;;;;;4999133;28;45415;-67
2021/12/13 14:32:12;;;;;;;;;13.67;13.67;;;;;;;;5024251;28;45398;-67
2021/12/13 14:34:37;;;;;;;;;17.00;15.33;;;;;;;;5000097;28;45558;-67
2021/12/13 14:37:03;;;;;;;;;16.00;12.33;;;;;;;;5023874;28;46151;-67
2021/12/13 14:39:32;;;;;;;;;14.33;14.33;;;;;;;;5005077;28;45397;-67
2021/12/13 14:42:02;;;;;;;;;14.00;13.00;;;;;;;;5023868;28;45427;-67
2021/12/13 14:44:32;;;;;;;;;14.67;14.67;;;;;;;;5023459;28;45621;-67
2021/12/13 14:47:04;;;;;;;;;21.33;14.00;;;;;;;;5023614;28;46477;-67
2021/12/13 14:49:39;;;;;;;;;34.00;26.33;;;;;;;;5022466;28;45326;-67
2021/12/13 14:52:07;;;;;;;;;19.00;15.00;;;;;;;;5019892;28;45403;-67